Time;durP1;ratioP1;P1;durP2;ratioP2;P2;SDS_P1;SDS_P2;PMS_P1;PMS_P2;Temp;Humidity;BMP_temperature;BMP_pressure;BME280_temperature;BME280_humidity;BME280_pressure;Samples;Min_cycle;Max_cycle;Signal;HPM_P1;HPM_P2
2021/05/31 00:00:42;;;;;;;13.75;7.63;;;13.60;99.90;;;;;;5066356;28;20028;-75
2021/05/31 00:03:08;;;;;;;13.88;7.10;;;13.60;99.90;;;;;;5067878;28;20031;-75
2021/05/31 00:05:33;;;;;;;14.90;6.68;;;13.50;99.90;;;;;;5071780;28;20040;-73
2021/05/31 00:07:59;;;;;;;9.85;6.25;;;13.50;99.90;;;;;;5072995;28;20034;-75
2021/05/31 00:10:25;;;;;;;14.32;7.28;;;13.50;99.90;;;;;;5073246;28;20035;-75
2021/05/31 00:12:52;;;;;;;8.98;6.45;;;13.40;99.90;;;;;;5070535;28;20583;-75
2021/05/31 00:15:19;;;;;;;11.25;7.50;;;13.40;99.90;;;;;;5073215;28;20104;-73
2021/05/31 00:17:44;;;;;;;14.73;8.32;;;13.40;99.90;;;;;;5068333;28;20533;-73
2021/05/31 00:20:11;;;;;;;18.20;8.02;;;13.40;99.90;;;;;;5065551;28;20052;-75
2021/05/31 00:22:37;;;;;;;12.98;6.60;;;13.40;99.90;;;;;;5063130;28;20039;-75
2021/05/31 00:25:05;;;;;;;12.35;7.85;;;13.30;99.90;;;;;;5071618;28;20127;-75
2021/05/31 00:27:31;;;;;;;15.60;7.47;;;13.30;99.90;;;;;;5063894;28;20028;-75
2021/05/31 00:29:56;;;;;;;17.55;7.32;;;13.20;99.90;;;;;;5073427;28;20111;-75
2021/05/31 00:32:22;;;;;;;12.07;6.95;;;13.20;99.90;;;;;;5071408;28;20365;-76
2021/05/31 00:34:48;;;;;;;14.95;7.70;;;13.10;99.90;;;;;;5073584;28;20035;-73
2021/05/31 00:37:15;;;;;;;17.05;8.25;;;13.10;99.90;;;;;;5061520;28;20031;-73
2021/05/31 00:39:40;;;;;;;16.17;8.18;;;13.10;99.90;;;;;;5052543;28;20044;-73
2021/05/31 00:42:06;;;;;;;14.23;7.75;;;13.00;99.90;;;;;;5070546;28;20488;-73
2021/05/31 00:44:32;;;;;;;11.43;7.63;;;13.10;99.90;;;;;;5070668;28;20032;-73
2021/05/31 00:46:58;;;;;;;16.60;7.97;;;13.00;99.90;;;;;;5064311;28;20082;-73
2021/05/31 00:49:27;;;;;;;10.40;7.15;;;13.00;99.90;;;;;;5072662;28;20419;-73
2021/05/31 00:51:54;;;;;;;13.32;7.93;;;13.00;99.90;;;;;;5073086;28;20024;-74
2021/05/31 00:54:20;;;;;;;16.02;8.10;;;13.00;99.90;;;;;;5073099;28;20047;-73
2021/05/31 00:56:46;;;;;;;17.80;7.95;;;12.90;99.90;;;;;;5073120;28;20029;-74
2021/05/31 00:59:13;;;;;;;17.35;9.02;;;12.80;99.90;;;;;;5071357;28;20066;-74
2021/05/31 01:01:40;;;;;;;17.02;8.85;;;12.80;99.90;;;;;;5073083;28;20032;-74
2021/05/31 01:04:06;;;;;;;15.52;8.43;;;12.80;99.90;;;;;;5071488;28;20016;-74
2021/05/31 01:06:35;;;;;;;19.02;9.43;;;12.80;99.90;;;;;;5075415;28;20151;-74
2021/05/31 01:09:12;;;;;;;10.68;7.57;;;12.70;99.90;;;;;;5078694;28;20000;-74
2021/05/31 01:11:58;;;;;;;13.00;7.97;;;12.70;99.90;;;;;;5090894;28;20031;-74
2021/05/31 01:14:42;;;;;;;18.13;8.77;;;12.70;99.90;;;;;;5093299;28;20043;-73
2021/05/31 01:17:16;;;;;;;15.15;8.13;;;12.70;99.90;;;;;;5085950;28;20031;-73
2021/05/31 01:19:51;;;;;;;12.63;8.20;;;12.70;99.90;;;;;;5087883;28;20027;-73
2021/05/31 01:22:22;;;;;;;13.85;8.93;;;12.50;99.90;;;;;;5093667;28;20064;-72
2021/05/31 01:24:50;;;;;;;16.98;8.93;;;12.60;99.90;;;;;;5099974;28;20128;-73
2021/05/31 01:27:23;;;;;;;15.95;8.82;;;12.50;99.90;;;;;;5098990;28;20047;-73
2021/05/31 01:29:52;;;;;;;20.85;11.48;;;12.50;99.90;;;;;;5100319;28;20033;-73
2021/05/31 01:32:24;;;;;;;16.65;8.93;;;12.50;99.90;;;;;;5099202;28;20102;-73
2021/05/31 01:34:51;;;;;;;17.42;9.75;;;12.40;99.90;;;;;;5098244;28;20035;-72
2021/05/31 01:37:20;;;;;;;14.18;9.07;;;12.40;99.90;;;;;;5087975;28;20035;-74
2021/05/31 01:39:49;;;;;;;22.35;9.13;;;12.40;99.90;;;;;;5081191;28;20032;-73
2021/05/31 01:42:18;;;;;;;15.45;8.48;;;12.30;99.90;;;;;;5081649;28;20047;-73
2021/05/31 01:44:45;;;;;;;20.63;9.85;;;12.30;99.90;;;;;;5078362;28;20036;-73
2021/05/31 01:47:11;;;;;;;20.08;10.90;;;12.20;99.90;;;;;;5077332;28;20028;-73
2021/05/31 01:49:37;;;;;;;20.40;9.48;;;12.30;99.90;;;;;;5077117;28;20020;-73
2021/05/31 01:52:03;;;;;;;17.35;9.63;;;12.20;99.90;;;;;;5077355;28;20052;-73
2021/05/31 01:54:30;;;;;;;23.00;11.15;;;12.10;99.90;;;;;;5076425;28;20456;-74
2021/05/31 01:56:57;;;;;;;15.52;9.30;;;12.00;99.90;;;;;;5075648;28;20018;-74
2021/05/31 01:59:23;;;;;;;15.07;9.90;;;12.00;99.90;;;;;;5071492;28;20025;-73
2021/05/31 02:01:52;;;;;;;23.25;9.93;;;12.10;99.90;;;;;;5074159;28;20054;-74
2021/05/31 02:04:18;;;;;;;19.95;10.52;;;12.10;99.90;;;;;;5075731;28;20021;-74
2021/05/31 02:06:44;;;;;;;22.45;10.18;;;12.10;99.90;;;;;;5057399;28;20078;-74
2021/05/31 02:09:10;;;;;;;15.27;9.13;;;12.10;99.90;;;;;;5074909;28;20111;-74
2021/05/31 02:11:44;;;;;;;16.75;10.13;;;12.10;99.90;;;;;;5075738;28;20032;-74
2021/05/31 02:14:27;;;;;;;17.20;9.27;;;12.10;99.90;;;;;;5075385;28;20017;-74
2021/05/31 02:17:23;;;;;;;21.35;10.52;;;12.10;99.90;;;;;;5071831;28;20032;-74
2021/05/31 02:19:53;;;;;;;24.67;10.63;;;12.10;99.90;;;;;;5060280;28;20033;-74
2021/05/31 02:22:22;;;;;;;18.63;9.98;;;12.20;99.90;;;;;;5069469;28;20306;-74
2021/05/31 02:24:48;;;;;;;21.17;11.45;;;12.10;99.90;;;;;;5070378;28;20048;-74
2021/05/31 02:27:16;;;;;;;18.88;10.93;;;12.10;99.90;;;;;;5068567;28;20043;-74
2021/05/31 02:29:41;;;;;;;18.23;10.82;;;12.10;99.90;;;;;;5075147;28;20396;-74
2021/05/31 02:32:07;;;;;;;24.95;11.57;;;12.00;99.90;;;;;;5073962;28;20032;-74
2021/05/31 02:34:33;;;;;;;18.50;10.85;;;11.90;99.90;;;;;;5073449;28;20020;-74
2021/05/31 02:36:59;;;;;;;20.73;11.70;;;11.80;99.90;;;;;;5070933;28;20063;-74
2021/05/31 02:39:25;;;;;;;24.98;11.30;;;11.80;99.90;;;;;;5075586;28;20380;-74
2021/05/31 02:41:51;;;;;;;26.92;11.10;;;11.80;99.90;;;;;;5075110;28;20033;-74
2021/05/31 02:44:16;;;;;;;23.50;11.48;;;11.70;99.90;;;;;;5073544;28;20025;-74
2021/05/31 02:46:42;;;;;;;22.85;11.93;;;11.70;99.90;;;;;;5070272;28;20086;-74
2021/05/31 02:49:07;;;;;;;26.58;12.10;;;11.70;99.90;;;;;;5074078;28;20119;-74
2021/05/31 02:51:38;;;;;;;24.45;12.13;;;11.60;99.90;;;;;;5074516;28;20107;-74
2021/05/31 02:56:48;;;;;;;23.75;12.73;;;11.60;99.90;;;;;;5073339;28;20527;-74
2021/05/31 02:59:14;;;;;;;27.23;11.50;;;11.50;99.90;;;;;;5072835;28;20032;-74
2021/05/31 03:01:40;;;;;;;25.73;11.35;;;11.50;99.90;;;;;;5074092;28;20389;-74
2021/05/31 03:04:05;;;;;;;22.27;12.23;;;11.50;99.90;;;;;;5071381;28;20032;-74
2021/05/31 03:06:31;;;;;;;27.17;12.35;;;11.40;99.90;;;;;;5072919;28;20503;-74
2021/05/31 03:08:56;;;;;;;24.15;12.93;;;11.40;99.90;;;;;;5056532;28;20037;-74
2021/05/31 03:11:22;;;;;;;26.77;11.93;;;11.40;99.90;;;;;;5066144;28;20067;-74
2021/05/31 03:13:47;;;;;;;21.50;11.82;;;11.30;99.90;;;;;;5073654;28;20024;-74
2021/05/31 03:16:13;;;;;;;30.45;12.75;;;11.40;99.90;;;;;;5072865;28;20418;-74
2021/05/31 03:18:39;;;;;;;22.85;12.73;;;11.40;99.90;;;;;;5073947;28;20021;-74
2021/05/31 03:21:04;;;;;;;20.35;11.32;;;11.40;99.90;;;;;;5073664;28;20086;-74
2021/05/31 03:23:30;;;;;;;20.27;12.05;;;11.40;99.90;;;;;;5073184;28;20025;-74
2021/05/31 03:25:55;;;;;;;23.48;12.23;;;11.50;99.90;;;;;;5072092;28;20481;-74
2021/05/31 03:28:21;;;;;;;27.13;12.93;;;11.40;99.90;;;;;;5074695;28;20028;-74
2021/05/31 03:30:47;;;;;;;24.27;11.20;;;11.50;99.90;;;;;;5073740;28;20123;-74
2021/05/31 03:33:12;;;;;;;21.90;11.05;;;11.40;99.90;;;;;;5072986;28;20047;-74
2021/05/31 03:35:39;;;;;;;22.00;12.30;;;11.40;99.90;;;;;;5071089;28;20033;-74
2021/05/31 03:38:04;;;;;;;23.58;12.75;;;11.50;99.90;;;;;;5063984;28;20029;-74
2021/05/31 03:40:30;;;;;;;23.02;13.45;;;11.50;99.90;;;;;;5071203;28;20059;-74
2021/05/31 03:42:56;;;;;;;26.63;11.50;;;11.50;99.90;;;;;;5073031;28;20016;-74
2021/05/31 03:45:22;;;;;;;30.10;12.70;;;11.50;99.90;;;;;;5072265;28;20477;-74
2021/05/31 03:47:48;;;;;;;19.10;11.63;;;11.50;99.90;;;;;;5071425;28;20062;-74
2021/05/31 03:50:14;;;;;;;27.70;12.50;;;11.50;99.90;;;;;;5073876;28;20415;-74
2021/05/31 03:52:40;;;;;;;27.45;12.50;;;11.50;99.90;;;;;;5074317;28;20124;-74
2021/05/31 03:55:08;;;;;;;30.13;13.05;;;11.60;99.90;;;;;;5074103;28;20048;-74
2021/05/31 03:57:35;;;;;;;24.73;11.70;;;11.60;99.90;;;;;;5074245;28;20115;-74
2021/05/31 04:00:06;;;;;;;26.02;12.05;;;11.60;99.90;;;;;;5067537;28;20514;-74
2021/05/31 04:02:32;;;;;;;24.65;12.27;;;11.60;99.90;;;;;;5073680;28;20024;-74
2021/05/31 04:04:58;;;;;;;26.92;12.20;;;11.60;99.90;;;;;;5087977;28;20037;-74
2021/05/31 04:12:55;;;;;;;27.13;12.80;;;11.50;99.90;;;;;;5094830;28;20048;-74
2021/05/31 04:15:21;;;;;;;29.77;12.50;;;11.50;99.90;;;;;;5094056;28;20025;-74
2021/05/31 04:17:46;;;;;;;23.58;13.15;;;11.40;99.90;;;;;;5095783;28;20028;-74
2021/05/31 04:20:13;;;;;;;22.02;12.10;;;11.50;99.90;;;;;;5096232;28;20039;-73
2021/05/31 04:22:39;;;;;;;26.65;13.25;;;11.50;99.90;;;;;;5088382;28;20080;-74
2021/05/31 04:25:06;;;;;;;22.70;12.38;;;11.60;99.90;;;;;;5094180;28;20104;-73
2021/05/31 04:27:32;;;;;;;29.33;13.23;;;11.70;99.90;;;;;;5094762;28;20028;-73
2021/05/31 04:29:58;;;;;;;24.55;12.90;;;11.70;99.90;;;;;;5079436;28;20032;-72
2021/05/31 04:32:23;;;;;;;28.75;14.05;;;11.80;99.90;;;;;;5081267;28;20032;-74
2021/05/31 04:34:49;;;;;;;26.95;13.30;;;11.80;99.90;;;;;;5076631;28;20082;-74
2021/05/31 04:37:15;;;;;;;24.13;13.50;;;11.80;99.90;;;;;;5078238;28;20105;-74
2021/05/31 04:39:41;;;;;;;23.10;12.48;;;11.70;99.90;;;;;;5071405;28;20022;-75
2021/05/31 04:42:07;;;;;;;27.15;14.45;;;11.60;99.90;;;;;;5072271;28;20020;-75
2021/05/31 04:44:34;;;;;;;25.33;12.93;;;11.60;99.90;;;;;;5068871;28;20059;-74
2021/05/31 04:46:59;;;;;;;27.08;12.43;;;11.60;99.90;;;;;;5072318;28;20443;-74
2021/05/31 04:49:25;;;;;;;29.42;13.05;;;11.60;99.90;;;;;;5069711;28;20136;-75
2021/05/31 04:51:51;;;;;;;28.20;14.23;;;11.60;99.90;;;;;;5071146;28;20103;-74
2021/05/31 04:54:17;;;;;;;21.80;13.15;;;11.60;99.90;;;;;;5071625;28;20123;-75
2021/05/31 04:56:42;;;;;;;30.08;14.38;;;11.60;99.90;;;;;;5071741;28;20021;-74
2021/05/31 04:59:08;;;;;;;26.73;12.93;;;11.70;99.90;;;;;;5070326;28;20048;-74
2021/05/31 05:01:34;;;;;;;27.52;13.73;;;11.90;99.90;;;;;;5075705;28;20060;-74
2021/05/31 05:04:00;;;;;;;21.13;12.65;;;11.90;99.90;;;;;;5072775;28;20024;-74
2021/05/31 05:06:26;;;;;;;25.75;12.80;;;12.10;99.90;;;;;;5065102;28;20049;-74
2021/05/31 05:08:53;;;;;;;28.00;12.18;;;12.10;99.90;;;;;;5063145;28;20066;-74
2021/05/31 05:11:20;;;;;;;22.85;12.75;;;12.30;99.90;;;;;;5073715;28;20056;-74
2021/05/31 05:13:46;;;;;;;22.27;12.82;;;12.40;99.90;;;;;;5074201;28;20063;-74
2021/05/31 05:16:12;;;;;;;26.85;13.15;;;12.50;99.90;;;;;;5072196;28;20358;-74
2021/05/31 05:18:45;;;;;;;22.67;12.95;;;12.50;99.90;;;;;;5070144;28;20036;-74
2021/05/31 05:21:11;;;;;;;25.83;13.45;;;12.60;99.90;;;;;;5075207;28;20099;-74
2021/05/31 05:23:40;;;;;;;20.95;12.32;;;12.80;99.90;;;;;;5076278;28;20108;-74
2021/05/31 05:26:06;;;;;;;23.42;12.93;;;12.90;99.90;;;;;;5073156;28;20131;-73
2021/05/31 05:28:32;;;;;;;26.85;14.13;;;13.00;99.90;;;;;;5073996;28;20071;-74
2021/05/31 05:31:03;;;;;;;23.20;12.38;;;13.00;99.90;;;;;;5070707;28;20025;-74
2021/05/31 05:33:29;;;;;;;22.92;12.85;;;13.20;99.90;;;;;;5069720;28;20565;-74
2021/05/31 05:36:03;;;;;;;26.80;13.82;;;13.40;99.90;;;;;;5069626;28;20017;-74
2021/05/31 05:38:41;;;;;;;25.67;12.93;;;13.40;99.90;;;;;;5072957;28;20036;-74
2021/05/31 05:41:17;;;;;;;30.63;12.93;;;13.40;99.90;;;;;;5074534;28;20025;-74
2021/05/31 05:43:51;;;;;;;24.38;11.98;;;13.40;99.90;;;;;;5075894;28;20028;-73
2021/05/31 05:48:46;;;;;;;21.80;12.00;;;13.60;99.90;;;;;;5059450;28;20543;-74
2021/05/31 05:51:11;;;;;;;20.15;10.75;;;13.60;99.90;;;;;;5073969;28;20485;-74
2021/05/31 05:53:42;;;;;;;25.77;11.57;;;13.70;99.90;;;;;;5075595;28;20020;-74
2021/05/31 05:56:20;;;;;;;27.77;13.32;;;13.60;99.90;;;;;;5073878;28;20100;-74
2021/05/31 05:58:46;;;;;;;;;;;13.70;99.90;;;;;;5075997;28;20372;-74
2021/05/31 06:01:13;;;;;;;15.88;10.88;;;13.90;99.90;;;;;;5074702;28;20249;-74
2021/05/31 06:03:39;;;;;;;17.40;10.70;;;14.30;99.90;;;;;;5076219;28;20024;-74
2021/05/31 06:06:05;;;;;;;18.98;10.43;;;14.70;99.90;;;;;;5075683;28;20055;-74
2021/05/31 06:08:31;;;;;;;22.80;10.10;;;15.90;99.90;;;;;;5074847;28;20355;-75
2021/05/31 06:11:04;;;;;;;16.60;9.65;;;17.70;99.90;;;;;;5072369;28;20431;-74
2021/05/31 06:13:30;;;;;;;23.85;10.15;;;18.40;99.90;;;;;;5067745;28;20523;-74
2021/05/31 06:15:59;;;;;;;21.73;9.80;;;18.70;99.90;;;;;;5074804;28;20031;-74
2021/05/31 06:18:25;;;;;;;19.17;9.25;;;18.30;99.90;;;;;;5070017;28;20024;-74
2021/05/31 06:20:51;;;;;;;19.40;10.40;;;18.70;99.90;;;;;;5073726;28;20058;-74
2021/05/31 06:23:16;;;;;;;19.60;10.82;;;18.90;99.90;;;;;;5074391;28;20388;-74
2021/05/31 06:25:42;;;;;;;16.77;9.40;;;19.50;99.90;;;;;;5075331;28;20049;-74
2021/05/31 06:28:08;;;;;;;20.25;9.05;;;21.00;99.90;;;;;;5074822;28;20020;-74
2021/05/31 06:30:35;;;;;;;11.50;8.43;;;22.80;99.90;;;;;;5075331;28;20021;-74
2021/05/31 06:33:00;;;;;;;18.52;9.38;;;23.90;99.90;;;;;;5073196;28;20059;-75
2021/05/31 06:35:27;;;;;;;15.52;9.48;;;24.50;98.70;;;;;;5074649;28;20041;-75
2021/05/31 06:37:52;;;;;;;17.67;8.25;;;24.60;98.40;;;;;;5073885;28;20017;-74
2021/05/31 06:40:18;;;;;;;20.90;8.57;;;25.40;97.90;;;;;;5073946;28;20029;-74
2021/05/31 06:42:46;;;;;;;12.73;8.23;;;26.30;97.30;;;;;;5075199;28;20047;-74
2021/05/31 06:45:23;;;;;;;19.60;8.23;;;26.80;95.90;;;;;;5074735;28;20078;-74
2021/05/31 06:47:50;;;;;;;15.00;8.00;;;27.10;94.90;;;;;;5075431;28;20020;-74
2021/05/31 06:50:16;;;;;;;11.82;7.63;;;27.00;94.60;;;;;;5074067;28;20020;-75
2021/05/31 06:52:42;;;;;;;13.85;8.07;;;26.10;94.90;;;;;;5071972;28;20607;-74
2021/05/31 06:55:09;;;;;;;11.05;7.15;;;24.60;96.20;;;;;;5066595;28;20039;-75
2021/05/31 06:57:35;;;;;;;14.88;7.85;;;22.70;97.80;;;;;;5069458;28;20033;-74
2021/05/31 07:00:01;;;;;;;17.73;8.50;;;21.50;99.40;;;;;;5064013;28;20090;-74
2021/05/31 07:02:26;;;;;;;9.68;7.43;;;20.50;99.90;;;;;;5074082;28;20472;-74
2021/05/31 07:04:52;;;;;;;10.77;6.43;;;21.00;99.90;;;;;;5065042;28;20051;-74
2021/05/31 07:07:20;;;;;;;15.70;7.65;;;22.10;99.90;;;;;;5073955;28;20039;-73
2021/05/31 07:09:46;;;;;;;12.93;7.85;;;22.90;99.20;;;;;;5071880;28;20514;-73
2021/05/31 07:12:15;;;;;;;20.00;8.15;;;23.50;98.60;;;;;;5057209;28;20048;-73
2021/05/31 07:14:44;;;;;;;14.52;8.07;;;23.80;97.50;;;;;;5061634;28;20035;-73
2021/05/31 07:17:09;;;;;;;15.63;7.90;;;23.60;97.80;;;;;;5075470;28;20024;-73
2021/05/31 07:19:35;;;;;;;11.02;6.72;;;23.70;97.50;;;;;;5067364;28;20091;-74
2021/05/31 07:22:01;;;;;;;10.82;6.95;;;24.50;97.60;;;;;;5062936;28;20020;-74
2021/05/31 07:24:27;;;;;;;11.77;7.22;;;25.00;97.20;;;;;;5071360;28;20025;-74
2021/05/31 07:26:56;;;;;;;14.77;6.05;;;24.50;96.40;;;;;;5072608;28;20499;-74
2021/05/31 07:29:22;;;;;;;13.07;6.75;;;24.40;97.20;;;;;;5073803;28;20350;-74
2021/05/31 07:31:47;;;;;;;13.30;6.68;;;24.30;96.80;;;;;;5073118;28;20051;-75
2021/05/31 07:36:57;;;;;;;14.18;5.38;;;24.00;96.90;;;;;;5076219;28;20070;-74
2021/05/31 07:39:23;;;;;;;14.00;6.32;;;23.80;97.50;;;;;;5075946;28;20025;-74
2021/05/31 07:41:48;;;;;;;13.07;6.18;;;23.20;97.50;;;;;;5089231;28;20052;-74
2021/05/31 07:44:14;;;;;;;16.30;6.57;;;22.80;98.50;;;;;;5089968;28;20017;-76
2021/05/31 07:46:40;;;;;;;10.27;5.15;;;22.30;98.50;;;;;;5086255;28;20060;-74
2021/05/31 07:49:06;;;;;;;12.10;5.38;;;22.00;99.40;;;;;;5089200;28;20021;-73
2021/05/31 07:51:32;;;;;;;17.05;6.75;;;21.90;99.40;;;;;;5082425;28;20039;-74
2021/05/31 07:53:58;;;;;;;16.27;6.53;;;21.60;99.60;;;;;;5090075;28;20017;-73
2021/05/31 07:56:28;;;;;;;10.05;5.88;;;21.40;99.90;;;;;;5091657;28;20104;-73
2021/05/31 07:58:57;;;;;;;12.68;5.63;;;21.40;99.90;;;;;;5079551;28;20101;-74
2021/05/31 08:01:23;;;;;;;9.30;5.88;;;21.20;99.90;;;;;;5087758;28;20074;-74
2021/05/31 08:03:49;;;;;;;9.35;5.07;;;21.40;99.90;;;;;;5079319;28;20062;-74
2021/05/31 08:06:15;;;;;;;10.98;5.50;;;21.50;99.60;;;;;;5092617;28;20028;-73
2021/05/31 08:08:42;;;;;;;12.55;5.53;;;21.80;99.90;;;;;;5090112;28;20027;-74
2021/05/31 08:11:11;;;;;;;7.60;5.30;;;21.90;99.70;;;;;;5088633;28;20020;-76
2021/05/31 08:13:37;;;;;;;6.57;3.92;;;21.90;99.40;;;;;;5082448;28;20025;-74
2021/05/31 08:16:04;;;;;;;8.60;5.07;;;21.80;99.80;;;;;;5080391;28;20028;-73
2021/05/31 08:18:30;;;;;;;6.65;4.88;;;22.70;98.60;;;;;;5088235;28;20050;-73
2021/05/31 08:20:56;;;;;;;7.53;4.65;;;23.20;98.20;;;;;;5089748;28;20536;-72
2021/05/31 08:23:22;;;;;;;14.05;7.07;;;23.50;98.50;;;;;;5083544;28;20021;-73
2021/05/31 08:25:48;;;;;;;10.88;4.78;;;23.30;98.50;;;;;;5087234;28;20508;-73
2021/05/31 08:28:13;;;;;;;9.30;4.45;;;23.50;98.20;;;;;;5087578;28;20033;-73
2021/05/31 08:30:43;;;;;;;9.15;5.20;;;24.20;98.10;;;;;;5085790;28;20101;-73
2021/05/31 08:33:10;;;;;;;6.55;3.67;;;24.40;97.40;;;;;;5088555;28;20032;-74
2021/05/31 08:35:40;;;;;;;7.73;4.63;;;24.50;95.70;;;;;;5088577;28;20033;-70
2021/05/31 08:38:06;;;;;;;5.65;4.95;;;24.90;96.40;;;;;;5088541;28;20033;-72
2021/05/31 08:40:31;;;;;;;5.53;3.33;;;25.10;96.50;;;;;;5081496;28;20051;-72
2021/05/31 08:42:57;;;;;;;8.13;4.20;;;25.20;96.90;;;;;;5090636;28;20136;-73
2021/05/31 08:45:25;;;;;;;8.55;4.20;;;26.00;94.40;;;;;;5086187;28;20084;-73
2021/05/31 08:47:53;;;;;;;6.43;4.55;;;26.60;93.20;;;;;;5088273;28;20029;-73
2021/05/31 08:50:22;;;;;;;11.07;4.03;;;26.30;94.30;;;;;;5089536;28;20035;-73
2021/05/31 08:52:50;;;;;;;8.93;4.78;;;26.40;94.40;;;;;;5090507;28;20018;-75
2021/05/31 08:55:22;;;;;;;5.40;3.28;;;26.30;93.40;;;;;;5091728;28;20035;-74
2021/05/31 08:57:50;;;;;;;11.65;5.55;;;26.80;92.20;;;;;;5088524;28;20500;-73
2021/05/31 09:00:18;;;;;;;6.28;4.43;;;26.10;93.10;;;;;;5081557;28;20020;-72
2021/05/31 09:02:44;;;;;;;10.10;3.70;;;26.20;93.30;;;;;;5079355;28;20351;-72
2021/05/31 09:05:10;;;;;;;11.07;4.03;;;25.60;93.70;;;;;;5078487;28;20028;-72
2021/05/31 09:07:37;;;;;;;7.63;3.35;;;25.70;93.30;;;;;;5078009;28;20032;-73
2021/05/31 09:10:05;;;;;;;10.23;4.43;;;25.80;92.90;;;;;;5087873;28;20051;-73
2021/05/31 09:12:35;;;;;;;9.30;4.38;;;26.40;91.80;;;;;;5078663;28;20488;-72
2021/05/31 09:15:04;;;;;;;4.38;2.75;;;26.00;92.10;;;;;;5077589;28;20017;-72
2021/05/31 09:17:32;;;;;;;4.90;2.28;;;25.70;92.10;;;;;;5076333;28;20136;-74
2021/05/31 09:19:58;;;;;;;3.85;2.80;;;26.00;92.00;;;;;;5076940;28;20025;-72
2021/05/31 09:22:24;;;;;;;6.57;4.13;;;26.10;91.40;;;;;;5077820;28;20024;-74
2021/05/31 09:25:28;;;;;;;5.80;3.05;;;26.20;91.00;;;;;;5056666;28;20037;-73
2021/05/31 09:27:54;;;;;;;11.60;4.15;;;25.50;90.70;;;;;;5049499;28;20504;-71
2021/05/31 09:30:36;;;;;;;5.50;2.63;;;24.40;91.00;;;;;;5066064;28;20040;-73
2021/05/31 09:33:02;;;;;;;7.13;2.97;;;23.90;92.80;;;;;;5073302;28;20062;-74
2021/05/31 09:35:27;;;;;;;5.50;2.67;;;24.20;91.70;;;;;;5067986;28;20033;-74
2021/05/31 09:37:53;;;;;;;2.78;2.50;;;24.80;90.50;;;;;;5074551;28;20495;-74
2021/05/31 09:40:24;;;;;;;4.28;2.53;;;25.10;88.80;;;;;;5072845;28;20035;-73
2021/05/31 09:42:52;;;;;;;10.88;5.72;;;25.00;90.30;;;;;;5071190;28;20098;-73
2021/05/31 09:45:19;;;;;;;4.03;3.03;;;24.80;91.70;;;;;;5078795;28;20535;-73
2021/05/31 09:47:45;;;;;;;3.53;2.80;;;24.90;92.80;;;;;;5079396;28;20025;-74
2021/05/31 09:50:20;;;;;;;5.75;2.60;;;24.70;90.40;;;;;;5078973;28;20442;-71
2021/05/31 09:52:45;;;;;;;4.47;2.42;;;24.70;89.60;;;;;;5072153;28;20078;-72
2021/05/31 09:55:11;;;;;;;10.07;2.80;;;24.80;90.40;;;;;;5075543;28;20029;-72
2021/05/31 09:57:38;;;;;;;5.93;2.50;;;25.00;90.20;;;;;;5076259;28;20024;-73
2021/05/31 10:00:17;;;;;;;5.93;2.75;;;25.10;89.50;;;;;;5077922;28;20049;-72
2021/05/31 10:10:36;;;;;;;3.45;2.30;;;25.60;85.70;;;;;;5076269;28;20037;-73
2021/05/31 10:13:03;;;;;;;3.20;2.70;;;25.80;85.60;;;;;;5073976;28;20039;-73
2021/05/31 10:15:40;;;;;;;15.18;8.48;;;25.30;85.60;;;;;;5077610;28;20457;-73
2021/05/31 10:18:06;;;;;;;4.85;2.20;;;24.70;85.40;;;;;;5072098;28;20069;-72
2021/05/31 10:20:34;;;;;;;6.53;2.67;;;24.30;86.80;;;;;;5076605;28;20033;-74
2021/05/31 10:23:00;;;;;;;4.15;2.38;;;24.30;86.70;;;;;;5073717;28;20028;-73
2021/05/31 10:25:27;;;;;;;5.10;2.33;;;24.80;87.00;;;;;;5071305;28;20110;-74
2021/05/31 10:28:05;;;;;;;3.20;2.35;;;25.50;84.70;;;;;;5073046;28;20032;-72
2021/05/31 10:30:46;;;;;;;3.78;2.08;;;25.30;88.40;;;;;;5074800;28;20028;-73
2021/05/31 10:33:16;;;;;;;2.78;2.08;;;25.10;85.30;;;;;;5067215;28;20020;-73
2021/05/31 10:35:43;;;;;;;5.45;2.25;;;25.20;84.80;;;;;;5069961;28;20115;-73
2021/05/31 10:38:18;;;;;;;4.00;2.43;;;25.20;86.70;;;;;;5071892;28;20542;-73
2021/05/31 10:40:49;;;;;;;3.88;2.20;;;25.50;86.90;;;;;;5071235;28;20484;-73
2021/05/31 10:43:17;;;;;;;8.50;2.15;;;25.30;86.10;;;;;;5076578;28;20020;-74
2021/05/31 10:45:44;;;;;;;2.95;2.03;;;25.10;84.40;;;;;;5070565;28;20020;-73
2021/05/31 10:48:16;;;;;;;3.17;2.38;;;24.90;84.80;;;;;;5076490;28;20017;-73
2021/05/31 10:50:47;;;;;;;4.30;2.13;;;24.80;84.60;;;;;;5076175;28;20032;-73
2021/05/31 10:53:25;;;;;;;3.15;1.70;;;24.40;85.60;;;;;;5077277;28;20066;-71
2021/05/31 10:56:09;;;;;;;6.45;2.15;;;24.50;87.20;;;;;;5073150;28;20082;-72
2021/05/31 10:58:38;;;;;;;2.28;2.05;;;24.60;87.10;;;;;;5074363;28;20538;-73
2021/05/31 11:01:12;;;;;;;3.13;2.08;;;24.60;86.80;;;;;;5075554;28;20457;-73
2021/05/31 11:03:50;;;;;;;3.08;2.08;;;24.20;90.20;;;;;;5076041;28;20476;-73
2021/05/31 11:06:21;;;;;;;5.70;2.58;;;24.10;90.20;;;;;;5075597;28;20636;-72
2021/05/31 11:08:49;;;;;;;4.25;2.88;;;23.70;88.70;;;;;;5075155;28;20024;-73
2021/05/31 11:11:36;;;;;;;12.02;2.70;;;23.40;90.70;;;;;;5074726;28;20032;-72
2021/05/31 11:14:03;;;;;;;4.45;2.53;;;23.40;91.50;;;;;;5068532;28;20025;-72
2021/05/31 11:16:32;;;;;;;2.40;2.20;;;23.30;90.70;;;;;;5074675;28;20036;-74
2021/05/31 11:19:00;;;;;;;5.90;3.15;;;23.50;90.90;;;;;;5073502;28;20075;-72
2021/05/31 11:21:28;;;;;;;7.72;2.72;;;23.60;90.30;;;;;;5073962;28;20139;-72
2021/05/31 11:24:05;;;;;;;6.22;3.17;;;23.70;91.00;;;;;;5076984;28;20465;-73
2021/05/31 11:26:37;;;;;;;5.28;3.72;;;23.80;91.20;;;;;;5073362;28;20090;-73
2021/05/31 11:29:05;;;;;;;6.20;4.05;;;23.40;92.20;;;;;;5070695;28;20112;-73
2021/05/31 11:31:32;;;;;;;10.98;3.75;;;23.60;92.60;;;;;;5075262;28;20043;-74
2021/05/31 11:33:58;;;;;;;5.72;4.72;;;23.80;92.80;;;;;;5071934;28;20029;-74
2021/05/31 11:36:36;;;;;;;8.45;4.80;;;24.20;92.20;;;;;;5074010;28;20554;-74
2021/05/31 11:39:07;;;;;;;7.90;4.95;;;24.50;91.50;;;;;;5083584;28;20017;-74
2021/05/31 11:41:42;;;;;;;7.25;4.28;;;24.80;92.20;;;;;;5075977;28;20048;-73
2021/05/31 11:44:11;;;;;;;9.23;4.47;;;24.90;92.40;;;;;;5073482;28;20024;-71
2021/05/31 11:46:48;;;;;;;8.43;4.85;;;24.90;92.20;;;;;;5075061;28;20025;-74
2021/05/31 11:49:15;;;;;;;8.23;4.47;;;24.80;91.80;;;;;;5072289;28;20032;-73
2021/05/31 11:51:41;;;;;;;6.30;4.20;;;24.70;92.00;;;;;;5072496;28;20040;-76
2021/05/31 11:54:07;;;;;;;8.00;4.82;;;24.70;92.10;;;;;;5068634;28;20027;-73
2021/05/31 11:56:34;;;;;;;6.40;4.15;;;24.80;91.90;;;;;;5072518;28;20119;-74
2021/05/31 11:59:00;;;;;;;4.85;4.18;;;24.40;92.40;;;;;;5071339;28;20028;-74
2021/05/31 12:01:28;;;;;;;8.23;4.32;;;24.20;92.40;;;;;;5064794;28;20431;-73
2021/05/31 12:03:54;;;;;;;9.63;4.38;;;24.40;92.30;;;;;;5061150;28;20072;-73
2021/05/31 12:06:19;;;;;;;7.30;3.75;;;24.60;92.40;;;;;;5065831;28;20039;-73
2021/05/31 12:08:46;;;;;;;11.40;3.90;;;24.60;93.00;;;;;;5072365;28;20116;-73
2021/05/31 12:11:19;;;;;;;6.20;4.03;;;24.70;92.20;;;;;;5072067;28;20045;-72
2021/05/31 12:13:45;;;;;;;7.82;4.57;;;24.70;91.90;;;;;;5073042;28;20437;-73
2021/05/31 12:16:13;;;;;;;6.88;4.35;;;24.60;91.40;;;;;;5072410;28;20107;-73
2021/05/31 12:18:38;;;;;;;7.35;3.58;;;24.20;91.40;;;;;;5070690;28;20024;-74
2021/05/31 12:21:04;;;;;;;6.22;3.30;;;24.30;92.20;;;;;;5065362;28;20024;-76
2021/05/31 12:23:30;;;;;;;6.70;3.58;;;24.50;92.40;;;;;;5066609;28;20082;-72
2021/05/31 12:26:02;;;;;;;4.97;3.35;;;24.70;91.30;;;;;;5072380;28;20580;-73
2021/05/31 12:28:33;;;;;;;8.38;3.60;;;24.80;91.80;;;;;;5071738;28;20025;-73
2021/05/31 12:30:59;;;;;;;9.30;4.10;;;24.50;91.70;;;;;;5072297;28;20451;-74
2021/05/31 12:33:25;;;;;;;6.38;3.78;;;24.50;91.80;;;;;;5072695;28;20085;-72
2021/05/31 12:35:51;;;;;;;7.05;3.67;;;24.60;91.30;;;;;;5071019;28;20036;-71
2021/05/31 12:38:21;;;;;;;4.07;3.45;;;24.30;91.80;;;;;;5071180;28;20082;-73
2021/05/31 12:40:51;;;;;;;9.25;3.50;;;24.20;91.70;;;;;;5071433;28;20024;-73
2021/05/31 12:43:17;;;;;;;8.27;3.20;;;24.40;92.20;;;;;;5071043;28;20044;-73
2021/05/31 12:45:49;;;;;;;16.38;3.22;;;24.60;92.60;;;;;;5063600;28;20037;-73
2021/05/31 12:48:21;;;;;;;5.85;3.33;;;24.60;92.00;;;;;;5058063;28;20038;-74
2021/05/31 12:50:49;;;;;;;9.48;3.40;;;24.70;91.80;;;;;;5070968;28;20044;-73
2021/05/31 12:53:15;;;;;;;9.82;3.30;;;24.60;92.10;;;;;;5072849;28;20089;-74
2021/05/31 12:55:42;;;;;;;4.65;3.42;;;24.70;91.00;;;;;;5071611;28;20104;-74
2021/05/31 12:58:11;;;;;;;5.95;3.35;;;24.80;91.00;;;;;;5069879;28;20033;-73
2021/05/31 13:00:36;;;;;;;3.50;3.05;;;24.70;90.40;;;;;;5073064;28;20380;-72
2021/05/31 13:03:02;;;;;;;6.07;3.10;;;25.00;90.60;;;;;;5070376;28;20032;-72